LPMA Información de aeropuertos

Información de pistas
Pista 05 Longitud 9110 ft Ancho 148 ft
Elevación 147 ft Umbral 480 ft Rumbo 45
Pista 23 Longitud 9110 ft Ancho 148 ft
Elevación 192 ft Umbral 490 ft Rumbo 225
Frecuencias
Tipo APP Nombre APP Frequencia 119.2 MHZ
Tipo TWR Nombre TWR Frequencia 118.35 MHZ
Radioayudas
Tipo VOR-DME Nombre Madeira Frequencia 112200 KHZ
Tipo NDB Nombre Madeira Frequencia 318 KHZ
Información meteorológica y NOTAM
ADDS - METARS form results

(2206 UTC 10 August 2020)
Data provider http://aviationweather.gov/metar/data/
 
METAR text: LPMA 102200Z 35004KT 290V040 9999 FEW015 23/17 Q1017
Conditions at: LPMA (FUNCHAL/MADEIRA , PT) observed 2200 UTC 10 August 2020
Temperature: 23.0°C (73°F)
Dewpoint: 17.0°C (63°F) [RH = 69%]
Pressure (altimeter): 30.03 inches Hg (1017.0 mb)
Winds: from the N (350 degrees) at 5 MPH (4 knots; 2.1 m/s)
Visibility: 6 or more miles (10+ km)
Ceiling: at least 12,000 feet AGL
Clouds: few clouds at 1500 feet AGL
Weather: no significant weather observed at this time

METAR text: LPMA 102130Z 36005KT 300V050 9999 FEW015 23/17 Q1017
Conditions at: LPMA (FUNCHAL/MADEIRA , PT) observed 2130 UTC 10 August 2020
Temperature: 23.0°C (73°F)
Dewpoint: 17.0°C (63°F) [RH = 69%]
Pressure (altimeter): 30.03 inches Hg (1017.0 mb)
Winds: from the N (360 degrees) at 6 MPH (5 knots; 2.6 m/s)
Visibility: 6 or more miles (10+ km)
Ceiling: at least 12,000 feet AGL
Clouds: few clouds at 1500 feet AGL
Weather: no significant weather observed at this time

Forecast for: LPMA (FUNCHAL/MADEIRA , PT)
Text: TAF LPMA 101700Z 1018/1118 02012KT 9999 SCT015
Forecast period: 1800 UTC 10 August 2020 to 1800 UTC 11 August 2020
Forecast type: FROM: standard forecast or significant change
Winds: from the NNE (20 degrees) at 14 MPH (12 knots; 6.2 m/s)
Visibility: 6 or more miles (10+ km)
Ceiling: at least 12,000 feet AGL
Clouds: scattered clouds at 1500 feet AGL
Weather: no significant weather forecast for this period
Text: TEMPO 1018/1118 FEW015 BKN030
Forecast period: 1800 UTC 10 August 2020 to 1800 UTC 11 August 2020
Forecast type: TEMPORARY: The following changes expected for less than half the time period
Visibility: missing
Ceiling: 3000 feet AGL
Clouds: few clouds at 1500 feet AGL
broken clouds at 3000 feet AGL
Weather: no significant weather forecast for this period
Text: PROB30
Forecast period: 1200 to 1600 UTC 11 August 2020
Forecast type: TEMPORARY: The following changes expected for less than half the time period
Winds: from the SSW (200 degrees) at 12 MPH (10 knots; 5.1 m/s)
Visibility: missing
Ceiling: unknown
Clouds: missing
Weather: no significant weather forecast for this period